Aérodrome d'Arcachon-La Teste-de-Buch

LFCH

May 17, 2022

Time Code Weather Temp. Visibility Clouds Wind METAR/SPECI
3:30 pm
V
79 °F 6¼ mi+ - 220°   220° 12 kt METAR LFBC 171330Z AUTO 22012KT 9999 ////// 26/13 Q1018
3:00 pm
V
79 °F 6¼ mi+ - 240°   240° 11 kt METAR LFBC 171300Z AUTO 24011KT 210V270 9999 ////// 26/14 Q1018
2:30 pm
V
81 °F 6¼ mi+ - 240°   240° 12 kt METAR LFBC 171230Z AUTO 24012KT 200V260 9999 ////// 27/14 Q1018
2:00 pm
V
79 °F 6¼ mi+ - 220°   220° 13 kt METAR LFBC 171200Z AUTO 22013KT 190V260 CAVOK 26/14 Q1018 NOSIG
1:30 pm
V
81 °F 6¼ mi+ - 220°   220° 14 kt METAR LFBC 171130Z AUTO 22014KT CAVOK 27/13 Q1018 NOSIG
1:00 pm
V
79 °F 6¼ mi+ - 220°   220° 12 kt METAR LFBC 171100Z AUTO 22012KT CAVOK 26/14 Q1018 NOSIG
12:30 pm
V
79 °F 6¼ mi+ - 230°   230° 12 kt METAR LFBC 171030Z AUTO 23012KT CAVOK 26/14 Q1018 NOSIG
12:00 pm
V
77 °F 6¼ mi+ - 230°   230° 13 kt METAR LFBC 171000Z AUTO 23013KT CAVOK 25/13 Q1018 NOSIG
11:30 am
V
79 °F 6¼ mi+ - 230°   230° 12 kt METAR LFBC 170930Z AUTO 23012KT CAVOK 26/13 Q1018 NOSIG
11:00 am
V
79 °F 6¼ mi+ - 220°   220° 11 kt METAR LFBC 170900Z AUTO 22011KT CAVOK 26/14 Q1017 NOSIG
10:30 am
V
77 °F 6¼ mi+ - 190°   190° 7 kt METAR LFBC 170830Z AUTO 19007KT CAVOK 25/15 Q1017 NOSIG
10:00 am
V
75 °F 6¼ mi+ - 180°   180° 7 kt METAR LFBC 170800Z AUTO 18007KT CAVOK 24/16 Q1017 NOSIG
9:30 am
V
72 °F 6¼ mi+ - 180°   180° 5 kt METAR LFBC 170730Z AUTO 18005KT CAVOK 22/17 Q1017 NOSIG
9:00 am
V
70 °F 6¼ mi+ - 170°   170° 6 kt METAR LFBC 170700Z AUTO 17006KT CAVOK 21/16 Q1017 NOSIG
8:30 am
V
68 °F 6¼ mi+ - 170°   170° 6 kt METAR LFBC 170630Z AUTO 17006KT CAVOK 20/16 Q1017 NOSIG
8:00 am
V
64 °F 6¼ mi+ - 130°   130° 4 kt METAR LFBC 170600Z AUTO 13004KT 100V160 CAVOK 18/15 Q1016 NOSIG
7:30 am
V
61 °F 6¼ mi+ - 120°   120° 2 kt METAR LFBC 170530Z AUTO 12002KT CAVOK 16/15 Q1016 NOSIG
7:00 am
V
59 °F 6¼ mi+ - Var   000° 0 kt METAR LFBC 170500Z AUTO 00000KT CAVOK 15/13 Q1016
6:30 am
V
59 °F 6¼ mi+ - 070°   070° 2 kt METAR LFBC 170430Z AUTO 07002KT CAVOK 15/14 Q1016
6:00 am
V
61 °F 6¼ mi+ - Var   000° 0 kt METAR LFBC 170400Z AUTO 00000KT CAVOK 16/14 Q1016
5:30 am
V
61 °F 6¼ mi+ - 070°   070° 2 kt METAR LFBC 170330Z AUTO 07002KT CAVOK 16/14 Q1016
5:00 am
V
63 °F 6¼ mi+ - 090°   090° 1 kt METAR LFBC 170300Z AUTO 09001KT CAVOK 17/14 Q1017
4:30 am
V
63 °F 6¼ mi+ - 090°   090° 3 kt METAR LFBC 170230Z AUTO 09003KT CAVOK 17/14 Q1016
4:00 am
V
63 °F 6¼ mi+ - Var   Var 2 kt METAR LFBC 170200Z AUTO VRB02KT CAVOK 17/14 Q1016
3:30 am
V
63 °F 6¼ mi+ - 060°   060° 3 kt METAR LFBC 170130Z AUTO 06003KT CAVOK 17/14 Q1017
3:00 am
V
63 °F 6¼ mi+ - 060°   060° 3 kt METAR LFBC 170100Z AUTO 06003KT CAVOK 17/14 Q1017
2:30 am
V
64 °F 6¼ mi+ - 070°   070° 4 kt METAR LFBC 170030Z AUTO 07004KT CAVOK 18/14 Q1017
2:00 am
V
64 °F 6¼ mi+ - 060°   060° 5 kt METAR LFBC 170000Z AUTO 06005KT CAVOK 18/14 Q1017
1:30 am
V
66 °F 6¼ mi+ - Var   Var 3 kt METAR LFBC 162330Z AUTO VRB03KT CAVOK 19/14 Q1018
1:00 am
V
66 °F 6¼ mi+ - 060°   060° 3 kt METAR LFBC 162300Z AUTO 06003KT 030V090 CAVOK 19/14 Q1018
12:30 am
V
63 °F 6¼ mi+ - 020°   020° 3 kt METAR LFBC 162230Z AUTO 02003KT CAVOK 17/13 Q1018
12:00 am
V
64 °F 6¼ mi+ - 020°   020° 3 kt METAR LFBC 162200Z AUTO 02003KT CAVOK 18/13 Q1018

May 16, 2022

Time Code Weather Temp. Visibility Clouds Wind METAR/SPECI
11:30 pm
V
63 °F 6¼ mi+ - 360°   360° 5 kt METAR LFBC 162130Z AUTO 36005KT CAVOK 17/13 Q1018
11:00 pm
V
64 °F 6¼ mi+ - 360°   360° 5 kt METAR LFBC 162100Z AUTO 36005KT CAVOK 18/13 Q1018
10:30 pm
V
66 °F 6¼ mi+ - 360°   360° 4 kt METAR LFBC 162030Z AUTO 36004KT CAVOK 19/12 Q1018
10:00 pm
V
68 °F 6¼ mi+ - 350°   350° 5 kt METAR LFBC 162000Z AUTO 35005KT CAVOK 20/12 Q1017
9:30 pm
V
70 °F 6¼ mi+ - 350°   350° 4 kt METAR LFBC 161930Z AUTO 35004KT CAVOK 21/11 Q1017
9:00 pm
V
73 °F 6¼ mi+ - 330°   330° 4 kt METAR LFBC 161900Z AUTO 33004KT CAVOK 23/11 Q1017
8:30 pm
V
77 °F 6¼ mi+ - 340°   340° 5 kt METAR LFBC 161830Z AUTO 34005KT CAVOK 25/10 Q1017
8:00 pm
L
79 °F 6¼ mi+ - 360°   360° 6 kt METAR LFBC 161800Z AUTO 36006KT 9999 VV/// 26/10 Q1017 BECMG NSC
7:30 pm
V
82 °F 6¼ mi+ - Var   Var 2 kt METAR LFBC 161730Z AUTO VRB02KT CAVOK 28/10 Q1017 NOSIG
7:00 pm
V
82 °F 6¼ mi+ - Var   Var 3 kt METAR LFBC 161700Z AUTO VRB03KT CAVOK 28/10 Q1017 NOSIG
6:30 pm
V
82 °F 6¼ mi+ - Var   Var 2 kt METAR LFBC 161630Z AUTO VRB02KT CAVOK 28/10 Q1017 NOSIG
6:00 pm
V
82 °F 6¼ mi+ - Var   Var 3 kt METAR LFBC 161600Z AUTO VRB03KT CAVOK 28/09 Q1017 NOSIG
5:30 pm
V
81 °F 6¼ mi+ - 210°   210° 4 kt METAR LFBC 161530Z AUTO 21004KT 180V250 CAVOK 27/11 Q1018 NOSIG
5:00 pm
V
81 °F 6¼ mi+ - 220°   220° 5 kt METAR LFBC 161500Z AUTO 22005KT 190V250 CAVOK 27/10 Q1018 NOSIG
4:30 pm
V
81 °F 6¼ mi+ - 230°   230° 5 kt METAR LFBC 161430Z AUTO 23005KT 180V280 CAVOK 27/11 Q1018 NOSIG
4:00 pm
V
79 °F 6¼ mi+ - 260°   260° 6 kt METAR LFBC 161400Z AUTO 26006KT 200V010 CAVOK 26/11 Q1018 NOSIG
3:30 pm
V
79 °F 6¼ mi+ - 230°   230° 5 kt METAR LFBC 161330Z AUTO 23005KT 180V280 CAVOK 26/12 Q1018 NOSIG
3:00 pm
V
79 °F 6¼ mi+ - 220°   220° 8 kt METAR LFBC 161300Z AUTO 22008KT 180V250 CAVOK 26/12 Q1018 NOSIG
2:30 pm
V
79 °F 6¼ mi+ - 230°   230° 8 kt METAR LFBC 161230Z AUTO 23008KT 200V270 CAVOK 26/11 Q1018 NOSIG
2:00 pm
V
79 °F 6¼ mi+ - 240°   240° 8 kt METAR LFBC 161200Z AUTO 24008KT 200V270 CAVOK 26/12 Q1019 NOSIG
1:30 pm
V
79 °F 6¼ mi+ - 240°   240° 10 kt METAR LFBC 161130Z AUTO 24010KT CAVOK 26/12 Q1019 NOSIG
1:00 pm
V
77 °F 6¼ mi+ - 220°   220° 8 kt METAR LFBC 161100Z AUTO 22008KT 200V260 CAVOK 25/12 Q1019 NOSIG
12:30 pm
V
75 °F 6¼ mi+ - 210°   210° 6 kt METAR LFBC 161030Z AUTO 21006KT 160V270 CAVOK 24/14 Q1018 NOSIG
12:00 pm
V
73 °F 6¼ mi+ - 190°   190° 6 kt METAR LFBC 161000Z AUTO 19006KT 140V220 CAVOK 23/17 Q1018 NOSIG
11:30 am
V
73 °F 6¼ mi+ - 180°   180° 6 kt METAR LFBC 160930Z AUTO 18006KT 150V220 CAVOK 23/17 Q1018 NOSIG
11:00 am
V
72 °F 6¼ mi+ - 180°   180° 7 kt METAR LFBC 160900Z AUTO 18007KT 150V210 CAVOK 22/17 Q1018 NOSIG
10:30 am
V
72 °F 6¼ mi+ - 150°   150° 9 kt METAR LFBC 160830Z AUTO 15009KT 130V190 CAVOK 22/17 Q1018 NOSIG
10:00 am
V
70 °F 6¼ mi+ - 140°   140° 8 kt METAR LFBC 160800Z AUTO 14008KT 100V160 CAVOK 21/17 Q1018
9:30 am
V
68 °F 6¼ mi+ - 160°   160° 4 kt METAR LFBC 160730Z AUTO 16004KT 120V200 CAVOK 20/17 Q1018 TEMPO BKN007
9:00 am
V
66 °F 6¼ mi+ - 100°   100° 4 kt METAR LFBC 160700Z AUTO 10004KT 030V140 CAVOK 19/17 Q1017 TEMPO BKN007
8:30 am
V
63 °F 6¼ mi+ - 070°   070° 3 kt METAR LFBC 160630Z AUTO 07003KT 040V100 CAVOK 17/17 Q1017 TEMPO BKN007
8:00 am
V
59 °F 5⅝ mi - Var   Var 2 kt METAR LFBC 160600Z AUTO VRB02KT 9000 FEW002 15/15 Q1017 TEMPO BKN007
7:30 am
L
57 °F ¼ mi - Var   Var 2 kt METAR LFBC 160530Z AUTO VRB02KT 0450 0350 R24/0550U FG VV/// 14/14 Q1017 TEMPO BKN007 BECMG 9999 NSW
7:00 am
L
59 °F ⅜ mi - 040°   040° 3 kt METAR LFBC 160500Z AUTO 04003KT 010V070 0750 0700 R24/1000U FG VV/// 15/15 Q1017
6:30 am
L
57 °F ⅜ mi - 010°   010° 3 kt METAR LFBC 160430Z AUTO 01003KT 0800 0700 R24/1000D FG VV/// 14/14 Q1017
6:00 am
L
57 °F ¼ mi - Var   Var 1 kt METAR LFBC 160400Z AUTO VRB01KT 0450 0400 R24/0450D FG VV/// 14/14 Q1017
5:30 am
L
57 °F ¼ mi - 090°   090° 3 kt METAR LFBC 160330Z AUTO 09003KT 0400 0350 R24/0600N FG VV/// 14/13 Q1017
5:00 am
L
55 °F ¼ mi - Var   Var 2 kt METAR LFBC 160300Z AUTO VRB02KT 0600 0400 R24/1200U FG VV/// 13/13 Q1016
4:30 am
L
57 °F ½ mi - Var   000° 0 kt METAR LFBC 160230Z AUTO 00000KT 4600 0800 R24/0900N BCFG VV/// 14/13 Q1017
4:00 am
L
57 °F ⅜ mi - Var   000° 0 kt METAR LFBC 160200Z AUTO 00000KT 0700 R24/P2000U FG NSC 14/13 Q1016
3:30 am
I
59 °F 1⅝ mi - 070°   070° 1 kt METAR LFBC 160130Z AUTO 07001KT 7000 2700 NSC 15/13 Q1016
3:00 am
M
61 °F 3¾ mi - Var   Var 3 kt METAR LFBC 160100Z AUTO VRB03KT 6000 NSC 16/16 Q1017
2:30 am
M
61 °F 3¾ mi - Var   Var 1 kt METAR LFBC 160030Z AUTO VRB01KT 6000 NSC 16/15 Q1017
2:00 am
M
61 °F 4⅜ mi - Var   000° 0 kt METAR LFBC 160000Z AUTO 00000KT 7000 NSC 16/15 Q1017
1:30 am
M
61 °F 3¾ mi - 130°   130° 3 kt METAR LFBC 152330Z AUTO 13003KT 6000 NSC 16/15 Q1017
1:00 am
V
63 °F 6¼ mi+ - 030°   030° 3 kt METAR LFBC 152300Z AUTO 03003KT 350V060 CAVOK 17/16 Q1017
12:30 am
V
63 °F 6¼ mi+ - 340°   340° 5 kt METAR LFBC 152230Z AUTO 34005KT 9999 //////TCU 17/16 Q1016
12:00 am
V
63 °F 6¼ mi+ - 340°   340° 5 kt METAR LFBC 152200Z AUTO 34005KT CAVOK 17/16 Q1016

May 15, 2022

Time Code Weather Temp. Visibility Clouds Wind METAR/SPECI
11:30 pm
V
64 °F 6¼ mi+ - 290°   290° 4 kt METAR LFBC 152130Z AUTO 29004KT 9999 //////TCU 18/17 Q1016
11:00 pm
V
64 °F 6¼ mi+ - 260°   260° 3 kt METAR LFBC 152100Z AUTO 26003KT 9999 ///TCU 18/17 Q1016
10:30 pm
V
66 °F 6¼ mi+ - 030°   030° 5 kt METAR LFBC 152030Z AUTO 03005KT 340V090 9999 -RA //////TCU 19/17 Q1015
10:00 pm
V
66 °F 6¼ mi+ - 060°   060° 3 kt METAR LFBC 152000Z AUTO 06003KT 030V130 9999 -RA //////CB 19/16 Q1015
9:30 pm
V
68 °F 6¼ mi+ - 010°   010° 4 kt METAR LFBC 151930Z AUTO 01004KT 9999 ///CB 20/15 Q1014
9:00 pm
V
68 °F 6¼ mi+ - 340°   340° 4 kt METAR LFBC 151900Z AUTO 34004KT CAVOK 20/16 Q1013
8:30 pm
V
70 °F 6¼ mi+ - 340°   340° 7 kt METAR LFBC 151830Z AUTO 34007KT CAVOK 21/16 Q1013
8:00 pm
V
72 °F 6¼ mi+ - 200°   200° 4 kt METAR LFBC 151800Z AUTO 20004KT 9999 VCTS ///CB 22/16 Q1013
7:30 pm
V
73 °F 6¼ mi+ - Var   Var 2 kt METAR LFBC 151730Z AUTO VRB02KT 9999 TS //////CB 23/14 Q1012
7:00 pm
V
72 °F 6¼ mi+ - Var   Var 3 kt METAR LFBC 151700Z AUTO VRB03KT 9999 VCTS ///CB 22/14 Q1012
6:30 pm
V
72 °F 6¼ mi+ - 320°   320° 7 kt METAR LFBC 151630Z AUTO 32007KT 280V350 9999 //////CB 22/14 Q1011
6:00 pm
V
75 °F 6¼ mi+ - 310°   310° 13 kt METAR LFBC 151600Z AUTO 31013KT 270V340 9999 VCTS ///CB 24/15 Q1011
5:30 pm
V
77 °F 6¼ mi+ - 290°   290° 13 kt METAR LFBC 151530Z AUTO 29013KT 250V330 9999 ///CB 25/14 Q1011
5:00 pm
V
81 °F 6¼ mi+ - 270°   270° 11 kt METAR LFBC 151500Z AUTO 27011KT 230V310 CAVOK 27/13 Q1011
4:30 pm
V
84 °F 6¼ mi+ - 240°   240° 9 kt METAR LFBC 151430Z AUTO 24009KT CAVOK 29/14 Q1011
4:00 pm
V
84 °F 6¼ mi+ - 230°   230° 9 kt METAR LFBC 151400Z AUTO 23009KT 200V260 CAVOK 29/14 Q1011
Older data

Download our app

Easy access to all aviation weather on your mobile phone and tablet.
With many features not available on the website, like offline support and a personal airport list.